Aviation Digital Data Service (ADDS)

Output produced by METARs form (0746 UTC 18 February 2019)
found at http://www.aviationweather.gov/metar/data/
 
METAR text: ZBAA 180730Z 09002MPS 030V150 CAVOK 05/M19 Q1021 NOSIG
Conditions at: ZBAA (BEIJING/PEKING , CN) observed 0730 UTC 18 February 2019
Temperature: 5.0°C (41°F)
Dewpoint: -19.0°C (-2°F) [RH = 16%]
Pressure (altimeter): 30.15 inches Hg (1021.0 mb)
Winds: from the E (90 degrees) at 5 MPH (4 knots; 2.1 m/s)
Visibility: 6 or more miles (10+ km)
Ceiling: ceiling and visibility are OK
Clouds: unknown
Weather: no significant weather observed at this time

METAR text: ZBAA 180700Z 04002MPS 350V120 CAVOK 05/M19 Q1021 NOSIG
Conditions at: ZBAA (BEIJING/PEKING , CN) observed 0700 UTC 18 February 2019
Temperature: 5.0°C (41°F)
Dewpoint: -19.0°C (-2°F) [RH = 16%]
Pressure (altimeter): 30.15 inches Hg (1021.0 mb)
Winds: from the NE (40 degrees) at 5 MPH (4 knots; 2.1 m/s)
Visibility: 6 or more miles (10+ km)
Ceiling: ceiling and visibility are OK
Clouds: unknown
Weather: no significant weather observed at this time

METAR text: ZBAA 180630Z VRB01MPS CAVOK 04/M20 Q1021 NOSIG
Conditions at: ZBAA (BEIJING/PEKING , CN) observed 0630 UTC 18 February 2019
Temperature: 4.0°C (39°F)
Dewpoint: -20.0°C (-4°F) [RH = 15%]
Pressure (altimeter): 30.15 inches Hg (1021.0 mb)
Winds: variable direction winds at 2 MPH (2 knots; 1.0 m/s)
Visibility: 6 or more miles (10+ km)
Ceiling: ceiling and visibility are OK
Clouds: unknown
Weather: no significant weather observed at this time

METAR text: ZBAA 180600Z VRB01MPS CAVOK 05/M19 Q1022 NOSIG
Conditions at: ZBAA (BEIJING/PEKING , CN) observed 0600 UTC 18 February 2019
Temperature: 5.0°C (41°F)
Dewpoint: -19.0°C (-2°F) [RH = 16%]
Pressure (altimeter): 30.18 inches Hg (1022.0 mb)
Winds: variable direction winds at 2 MPH (2 knots; 1.0 m/s)
Visibility: 6 or more miles (10+ km)
Ceiling: ceiling and visibility are OK
Clouds: unknown
Weather: no significant weather observed at this time

METAR text: ZBAA 180530Z VRB01MPS CAVOK 05/M19 Q1022 NOSIG
Conditions at: ZBAA (BEIJING/PEKING , CN) observed 0530 UTC 18 February 2019
Temperature: 5.0°C (41°F)
Dewpoint: -19.0°C (-2°F) [RH = 16%]
Pressure (altimeter): 30.18 inches Hg (1022.0 mb)
Winds: variable direction winds at 2 MPH (2 knots; 1.0 m/s)
Visibility: 6 or more miles (10+ km)
Ceiling: ceiling and visibility are OK
Clouds: unknown
Weather: no significant weather observed at this time

METAR text: ZBAA 180500Z VRB01MPS CAVOK 04/M20 Q1023 NOSIG
Conditions at: ZBAA (BEIJING/PEKING , CN) observed 0500 UTC 18 February 2019
Temperature: 4.0°C (39°F)
Dewpoint: -20.0°C (-4°F) [RH = 15%]
Pressure (altimeter): 30.21 inches Hg (1023.0 mb)
Winds: variable direction winds at 2 MPH (2 knots; 1.0 m/s)
Visibility: 6 or more miles (10+ km)
Ceiling: ceiling and visibility are OK
Clouds: unknown
Weather: no significant weather observed at this time

METAR text: ZBAA 180430Z VRB01MPS CAVOK 04/M20 Q1023 NOSIG
Conditions at: ZBAA (BEIJING/PEKING , CN) observed 0430 UTC 18 February 2019
Temperature: 4.0°C (39°F)
Dewpoint: -20.0°C (-4°F) [RH = 15%]
Pressure (altimeter): 30.21 inches Hg (1023.0 mb)
Winds: variable direction winds at 2 MPH (2 knots; 1.0 m/s)
Visibility: 6 or more miles (10+ km)
Ceiling: ceiling and visibility are OK
Clouds: unknown
Weather: no significant weather observed at this time

METAR text: ZBAA 180400Z 31002MPS 250V020 CAVOK 04/M20 Q1024 NOSIG
Conditions at: ZBAA (BEIJING/PEKING , CN) observed 0400 UTC 18 February 2019
Temperature: 4.0°C (39°F)
Dewpoint: -20.0°C (-4°F) [RH = 15%]
Pressure (altimeter): 30.24 inches Hg (1024.0 mb)
Winds: from the NW (310 degrees) at 5 MPH (4 knots; 2.1 m/s)
Visibility: 6 or more miles (10+ km)
Ceiling: ceiling and visibility are OK
Clouds: unknown
Weather: no significant weather observed at this time

METAR text: ZBAA 180330Z VRB01MPS CAVOK 04/M19 Q1024 NOSIG
Conditions at: ZBAA (BEIJING/PEKING , CN) observed 0330 UTC 18 February 2019
Temperature: 4.0°C (39°F)
Dewpoint: -19.0°C (-2°F) [RH = 17%]
Pressure (altimeter): 30.24 inches Hg (1024.0 mb)
Winds: variable direction winds at 2 MPH (2 knots; 1.0 m/s)
Visibility: 6 or more miles (10+ km)
Ceiling: ceiling and visibility are OK
Clouds: unknown
Weather: no significant weather observed at this time

METAR text: ZBAA 180300Z VRB01MPS CAVOK 03/M20 Q1025 NOSIG
Conditions at: ZBAA (BEIJING/PEKING , CN) observed 0300 UTC 18 February 2019
Temperature: 3.0°C (37°F)
Dewpoint: -20.0°C (-4°F) [RH = 17%]
Pressure (altimeter): 30.27 inches Hg (1025.0 mb)
Winds: variable direction winds at 2 MPH (2 knots; 1.0 m/s)
Visibility: 6 or more miles (10+ km)
Ceiling: ceiling and visibility are OK
Clouds: unknown
Weather: no significant weather observed at this time

METAR text: ZBAA 180230Z 32002MPS 290V030 CAVOK 03/M19 Q1025 NOSIG
Conditions at: ZBAA (BEIJING/PEKING , CN) observed 0230 UTC 18 February 2019
Temperature: 3.0°C (37°F)
Dewpoint: -19.0°C (-2°F) [RH = 18%]
Pressure (altimeter): 30.27 inches Hg (1025.0 mb)
Winds: from the NW (320 degrees) at 5 MPH (4 knots; 2.1 m/s)
Visibility: 6 or more miles (10+ km)
Ceiling: ceiling and visibility are OK
Clouds: unknown
Weather: no significant weather observed at this time

METAR text: ZBAA 180200Z 01003MPS CAVOK 02/M20 Q1024 NOSIG
Conditions at: ZBAA (BEIJING/PEKING , CN) observed 0200 UTC 18 February 2019
Temperature: 2.0°C (36°F)
Dewpoint: -20.0°C (-4°F) [RH = 18%]
Pressure (altimeter): 30.24 inches Hg (1024.0 mb)
Winds: from the N (10 degrees) at 7 MPH (6 knots; 3.1 m/s)
Visibility: 6 or more miles (10+ km)
Ceiling: ceiling and visibility are OK
Clouds: unknown
Weather: no significant weather observed at this time

METAR text: ZBAA 180130Z 34003MPS 300V030 CAVOK 02/M18 Q1024 NOSIG
Conditions at: ZBAA (BEIJING/PEKING , CN) observed 0130 UTC 18 February 2019
Temperature: 2.0°C (36°F)
Dewpoint: -18.0°C (-0°F) [RH = 21%]
Pressure (altimeter): 30.24 inches Hg (1024.0 mb)
Winds: from the NNW (340 degrees) at 7 MPH (6 knots; 3.1 m/s)
Visibility: 6 or more miles (10+ km)
Ceiling: ceiling and visibility are OK
Clouds: unknown
Weather: no significant weather observed at this time

METAR text: ZBAA 180100Z 36003MPS CAVOK 00/M18 Q1024 NOSIG
Conditions at: ZBAA (BEIJING/PEKING , CN) observed 0100 UTC 18 February 2019
Temperature: 0.0°C (32°F)
Dewpoint: -18.0°C (-0°F) [RH = 24%]
Pressure (altimeter): 30.24 inches Hg (1024.0 mb)
Winds: from the N (360 degrees) at 7 MPH (6 knots; 3.1 m/s)
Visibility: 6 or more miles (10+ km)
Ceiling: ceiling and visibility are OK
Clouds: unknown
Weather: no significant weather observed at this time

METAR text: ZBAA 180030Z 34002MPS 300V010 CAVOK M00/M16 Q1025 NOSIG
Conditions at: ZBAA (BEIJING/PEKING , CN) observed 0030 UTC 18 February 2019
Temperature: 0.0°C (32°F)
Dewpoint: -16.0°C ( 3°F) [RH = 29%]
Pressure (altimeter): 30.27 inches Hg (1025.0 mb)
Winds: from the NNW (340 degrees) at 5 MPH (4 knots; 2.1 m/s)
Visibility: 6 or more miles (10+ km)
Ceiling: ceiling and visibility are OK
Clouds: unknown
Weather: no significant weather observed at this time

METAR text: ZBAA 180000Z VRB01MPS CAVOK M02/M18 Q1024 NOSIG
Conditions at: ZBAA (BEIJING/PEKING , CN) observed 0000 UTC 18 February 2019
Temperature: -2.0°C (28°F)
Dewpoint: -18.0°C (-0°F) [RH = 28%]
Pressure (altimeter): 30.24 inches Hg (1024.0 mb)
Winds: variable direction winds at 2 MPH (2 knots; 1.0 m/s)
Visibility: 6 or more miles (10+ km)
Ceiling: ceiling and visibility are OK
Clouds: unknown
Weather: no significant weather observed at this time

METAR text: ZBAA 172330Z 01003MPS CAVOK M01/M18 Q1024 NOSIG
Conditions at: ZBAA (BEIJING/PEKING , CN) observed 2330 UTC 17 February 2019
Temperature: -1.0°C (30°F)
Dewpoint: -18.0°C (-0°F) [RH = 26%]
Pressure (altimeter): 30.24 inches Hg (1024.0 mb)
Winds: from the N (10 degrees) at 7 MPH (6 knots; 3.1 m/s)
Visibility: 6 or more miles (10+ km)
Ceiling: ceiling and visibility are OK
Clouds: unknown
Weather: no significant weather observed at this time

METAR text: ZBAA 172300Z 02002MPS 330V050 CAVOK M01/M18 Q1024 NOSIG
Conditions at: ZBAA (BEIJING/PEKING , CN) observed 2300 UTC 17 February 2019
Temperature: -1.0°C (30°F)
Dewpoint: -18.0°C (-0°F) [RH = 26%]
Pressure (altimeter): 30.24 inches Hg (1024.0 mb)
Winds: from the NNE (20 degrees) at 5 MPH (4 knots; 2.1 m/s)
Visibility: 6 or more miles (10+ km)
Ceiling: ceiling and visibility are OK
Clouds: unknown
Weather: no significant weather observed at this time

METAR text: ZBAA 172230Z 01003MPS CAVOK M03/M18 Q1024 NOSIG
Conditions at: ZBAA (BEIJING/PEKING , CN) observed 2230 UTC 17 February 2019
Temperature: -3.0°C (27°F)
Dewpoint: -18.0°C (-0°F) [RH = 30%]
Pressure (altimeter): 30.24 inches Hg (1024.0 mb)
Winds: from the N (10 degrees) at 7 MPH (6 knots; 3.1 m/s)
Visibility: 6 or more miles (10+ km)
Ceiling: ceiling and visibility are OK
Clouds: unknown
Weather: no significant weather observed at this time

METAR text: ZBAA 172200Z 35003MPS CAVOK M01/M17 Q1024 NOSIG
Conditions at: ZBAA (BEIJING/PEKING , CN) observed 2200 UTC 17 February 2019
Temperature: -1.0°C (30°F)
Dewpoint: -17.0°C ( 1°F) [RH = 28%]
Pressure (altimeter): 30.24 inches Hg (1024.0 mb)
Winds: from the N (350 degrees) at 7 MPH (6 knots; 3.1 m/s)
Visibility: 6 or more miles (10+ km)
Ceiling: ceiling and visibility are OK
Clouds: unknown
Weather: no significant weather observed at this time

METAR text: ZBAA 172130Z 01003MPS CAVOK M01/M17 Q1024 NOSIG
Conditions at: ZBAA (BEIJING/PEKING , CN) observed 2130 UTC 17 February 2019
Temperature: -1.0°C (30°F)
Dewpoint: -17.0°C ( 1°F) [RH = 28%]
Pressure (altimeter): 30.24 inches Hg (1024.0 mb)
Winds: from the N (10 degrees) at 7 MPH (6 knots; 3.1 m/s)
Visibility: 6 or more miles (10+ km)
Ceiling: ceiling and visibility are OK
Clouds: unknown
Weather: no significant weather observed at this time

METAR text: ZBAA 172100Z 01003MPS CAVOK M02/M16 Q1024 NOSIG
Conditions at: ZBAA (BEIJING/PEKING , CN) observed 2100 UTC 17 February 2019
Temperature: -2.0°C (28°F)
Dewpoint: -16.0°C ( 3°F) [RH = 33%]
Pressure (altimeter): 30.24 inches Hg (1024.0 mb)
Winds: from the N (10 degrees) at 7 MPH (6 knots; 3.1 m/s)
Visibility: 6 or more miles (10+ km)
Ceiling: ceiling and visibility are OK
Clouds: unknown
Weather: no significant weather observed at this time

METAR text: ZBAA 172030Z 33003MPS 290V350 CAVOK M03/M15 Q1024 NOSIG
Conditions at: ZBAA (BEIJING/PEKING , CN) observed 2030 UTC 17 February 2019
Temperature: -3.0°C (27°F)
Dewpoint: -15.0°C ( 5°F) [RH = 39%]
Pressure (altimeter): 30.24 inches Hg (1024.0 mb)
Winds: from the NNW (330 degrees) at 7 MPH (6 knots; 3.1 m/s)
Visibility: 6 or more miles (10+ km)
Ceiling: ceiling and visibility are OK
Clouds: unknown
Weather: no significant weather observed at this time

METAR text: ZBAA 172000Z 34003MPS CAVOK M05/M15 Q1024 NOSIG
Conditions at: ZBAA (BEIJING/PEKING , CN) observed 2000 UTC 17 February 2019
Temperature: -5.0°C (23°F)
Dewpoint: -15.0°C ( 5°F) [RH = 45%]
Pressure (altimeter): 30.24 inches Hg (1024.0 mb)
Winds: from the NNW (340 degrees) at 7 MPH (6 knots; 3.1 m/s)
Visibility: 6 or more miles (10+ km)
Ceiling: ceiling and visibility are OK
Clouds: unknown
Weather: no significant weather observed at this time

METAR text: ZBAA 171930Z 33004MPS CAVOK M02/M14 Q1024 NOSIG
Conditions at: ZBAA (BEIJING/PEKING , CN) observed 1930 UTC 17 February 2019
Temperature: -2.0°C (28°F)
Dewpoint: -14.0°C ( 7°F) [RH = 39%]
Pressure (altimeter): 30.24 inches Hg (1024.0 mb)
Winds: from the NNW (330 degrees) at 9 MPH (8 knots; 4.1 m/s)
Visibility: 6 or more miles (10+ km)
Ceiling: ceiling and visibility are OK
Clouds: unknown
Weather: no significant weather observed at this time

METAR text: ZBAA 171900Z 35003MPS CAVOK M02/M16 Q1024 NOSIG
Conditions at: ZBAA (BEIJING/PEKING , CN) observed 1900 UTC 17 February 2019
Temperature: -2.0°C (28°F)
Dewpoint: -16.0°C ( 3°F) [RH = 33%]
Pressure (altimeter): 30.24 inches Hg (1024.0 mb)
Winds: from the N (350 degrees) at 7 MPH (6 knots; 3.1 m/s)
Visibility: 6 or more miles (10+ km)
Ceiling: ceiling and visibility are OK
Clouds: unknown
Weather: no significant weather observed at this time

METAR text: ZBAA 171830Z 02004MPS CAVOK 01/M18 Q1025 NOSIG
Conditions at: ZBAA (BEIJING/PEKING , CN) observed 1830 UTC 17 February 2019
Temperature: 1.0°C (34°F)
Dewpoint: -18.0°C (-0°F) [RH = 23%]
Pressure (altimeter): 30.27 inches Hg (1025.0 mb)
Winds: from the NNE (20 degrees) at 9 MPH (8 knots; 4.1 m/s)
Visibility: 6 or more miles (10+ km)
Ceiling: ceiling and visibility are OK
Clouds: unknown
Weather: no significant weather observed at this time

METAR text: ZBAA 171800Z 01003MPS CAVOK 01/M18 Q1025 NOSIG
Conditions at: ZBAA (BEIJING/PEKING , CN) observed 1800 UTC 17 February 2019
Temperature: 1.0°C (34°F)
Dewpoint: -18.0°C (-0°F) [RH = 23%]
Pressure (altimeter): 30.27 inches Hg (1025.0 mb)
Winds: from the N (10 degrees) at 7 MPH (6 knots; 3.1 m/s)
Visibility: 6 or more miles (10+ km)
Ceiling: ceiling and visibility are OK
Clouds: unknown
Weather: no significant weather observed at this time

METAR text: ZBAA 171730Z 36003MPS CAVOK M02/M14 Q1025 NOSIG
Conditions at: ZBAA (BEIJING/PEKING , CN) observed 1730 UTC 17 February 2019
Temperature: -2.0°C (28°F)
Dewpoint: -14.0°C ( 7°F) [RH = 39%]
Pressure (altimeter): 30.27 inches Hg (1025.0 mb)
Winds: from the N (360 degrees) at 7 MPH (6 knots; 3.1 m/s)
Visibility: 6 or more miles (10+ km)
Ceiling: ceiling and visibility are OK
Clouds: unknown
Weather: no significant weather observed at this time

METAR text: ZBAA 171700Z 34003MPS CAVOK M03/M15 Q1026 NOSIG
Conditions at: ZBAA (BEIJING/PEKING , CN) observed 1700 UTC 17 February 2019
Temperature: -3.0°C (27°F)
Dewpoint: -15.0°C ( 5°F) [RH = 39%]
Pressure (altimeter): 30.30 inches Hg (1026.0 mb)
Winds: from the NNW (340 degrees) at 7 MPH (6 knots; 3.1 m/s)
Visibility: 6 or more miles (10+ km)
Ceiling: ceiling and visibility are OK
Clouds: unknown
Weather: no significant weather observed at this time

METAR text: ZBAA 171630Z 34002MPS CAVOK M02/M16 Q1026 NOSIG
Conditions at: ZBAA (BEIJING/PEKING , CN) observed 1630 UTC 17 February 2019
Temperature: -2.0°C (28°F)
Dewpoint: -16.0°C ( 3°F) [RH = 33%]
Pressure (altimeter): 30.30 inches Hg (1026.0 mb)
Winds: from the NNW (340 degrees) at 5 MPH (4 knots; 2.1 m/s)
Visibility: 6 or more miles (10+ km)
Ceiling: ceiling and visibility are OK
Clouds: unknown
Weather: no significant weather observed at this time

METAR text: ZBAA 171600Z 35002MPS CAVOK M02/M17 Q1026 NOSIG
Conditions at: ZBAA (BEIJING/PEKING , CN) observed 1600 UTC 17 February 2019
Temperature: -2.0°C (28°F)
Dewpoint: -17.0°C ( 1°F) [RH = 31%]
Pressure (altimeter): 30.30 inches Hg (1026.0 mb)
Winds: from the N (350 degrees) at 5 MPH (4 knots; 2.1 m/s)
Visibility: 6 or more miles (10+ km)
Ceiling: ceiling and visibility are OK
Clouds: unknown
Weather: no significant weather observed at this time

METAR text: ZBAA 171530Z VRB01MPS CAVOK M01/M18 Q1026 NOSIG
Conditions at: ZBAA (BEIJING/PEKING , CN) observed 1530 UTC 17 February 2019
Temperature: -1.0°C (30°F)
Dewpoint: -18.0°C (-0°F) [RH = 26%]
Pressure (altimeter): 30.30 inches Hg (1026.0 mb)
Winds: variable direction winds at 2 MPH (2 knots; 1.0 m/s)
Visibility: 6 or more miles (10+ km)
Ceiling: ceiling and visibility are OK
Clouds: unknown
Weather: no significant weather observed at this time

METAR text: ZBAA 171500Z 01002MPS CAVOK M01/M18 Q1026 NOSIG
Conditions at: ZBAA (BEIJING/PEKING , CN) observed 1500 UTC 17 February 2019
Temperature: -1.0°C (30°F)
Dewpoint: -18.0°C (-0°F) [RH = 26%]
Pressure (altimeter): 30.30 inches Hg (1026.0 mb)
Winds: from the N (10 degrees) at 5 MPH (4 knots; 2.1 m/s)
Visibility: 6 or more miles (10+ km)
Ceiling: ceiling and visibility are OK
Clouds: unknown
Weather: no significant weather observed at this time

METAR text: ZBAA 171430Z 29003MPS 260V340 CAVOK 03/M20 Q1026 NOSIG
Conditions at: ZBAA (BEIJING/PEKING , CN) observed 1430 UTC 17 February 2019
Temperature: 3.0°C (37°F)
Dewpoint: -20.0°C (-4°F) [RH = 17%]
Pressure (altimeter): 30.30 inches Hg (1026.0 mb)
Winds: from the WNW (290 degrees) at 7 MPH (6 knots; 3.1 m/s)
Visibility: 6 or more miles (10+ km)
Ceiling: ceiling and visibility are OK
Clouds: unknown
Weather: no significant weather observed at this time

METAR text: ZBAA 171400Z 26004MPS CAVOK 03/M21 Q1026 NOSIG
Conditions at: ZBAA (BEIJING/PEKING , CN) observed 1400 UTC 17 February 2019
Temperature: 3.0°C (37°F)
Dewpoint: -21.0°C (-6°F) [RH = 15%]
Pressure (altimeter): 30.30 inches Hg (1026.0 mb)
Winds: from the W (260 degrees) at 9 MPH (8 knots; 4.1 m/s)
Visibility: 6 or more miles (10+ km)
Ceiling: ceiling and visibility are OK
Clouds: unknown
Weather: no significant weather observed at this time

METAR text: ZBAA 171330Z 26003G08MPS 210V290 CAVOK 03/M20 Q1026 NOSIG
Conditions at: ZBAA (BEIJING/PEKING , CN) observed 1330 UTC 17 February 2019
Temperature: 3.0°C (37°F)
Dewpoint: -20.0°C (-4°F) [RH = 17%]
Pressure (altimeter): 30.30 inches Hg (1026.0 mb)
Winds: from the W (260 degrees) at 7 MPH (6 knots; 3.1 m/s)
gusting to 18 MPH (16 knots; 8.2 m/s)
Visibility: 6 or more miles (10+ km)
Ceiling: ceiling and visibility are OK
Clouds: unknown
Weather: no significant weather observed at this time

METAR text: ZBAA 171300Z 26003MPS 230V300 CAVOK 03/M20 Q1026 NOSIG
Conditions at: ZBAA (BEIJING/PEKING , CN) observed 1300 UTC 17 February 2019
Temperature: 3.0°C (37°F)
Dewpoint: -20.0°C (-4°F) [RH = 17%]
Pressure (altimeter): 30.30 inches Hg (1026.0 mb)
Winds: from the W (260 degrees) at 7 MPH (6 knots; 3.1 m/s)
Visibility: 6 or more miles (10+ km)
Ceiling: ceiling and visibility are OK
Clouds: unknown
Weather: no significant weather observed at this time

METAR text: ZBAA 171230Z 28003MPS 260V350 CAVOK 03/M21 Q1026 NOSIG
Conditions at: ZBAA (BEIJING/PEKING , CN) observed 1230 UTC 17 February 2019
Temperature: 3.0°C (37°F)
Dewpoint: -21.0°C (-6°F) [RH = 15%]
Pressure (altimeter): 30.30 inches Hg (1026.0 mb)
Winds: from the W (280 degrees) at 7 MPH (6 knots; 3.1 m/s)
Visibility: 6 or more miles (10+ km)
Ceiling: ceiling and visibility are OK
Clouds: unknown
Weather: no significant weather observed at this time

METAR text: ZBAA 171200Z 27004MPS 250V330 CAVOK 04/M20 Q1026 NOSIG
Conditions at: ZBAA (BEIJING/PEKING , CN) observed 1200 UTC 17 February 2019
Temperature: 4.0°C (39°F)
Dewpoint: -20.0°C (-4°F) [RH = 15%]
Pressure (altimeter): 30.30 inches Hg (1026.0 mb)
Winds: from the W (270 degrees) at 9 MPH (8 knots; 4.1 m/s)
Visibility: 6 or more miles (10+ km)
Ceiling: ceiling and visibility are OK
Clouds: unknown
Weather: no significant weather observed at this time

METAR text: ZBAA 171130Z 27003MPS 210V320 CAVOK 04/M20 Q1026 NOSIG
Conditions at: ZBAA (BEIJING/PEKING , CN) observed 1130 UTC 17 February 2019
Temperature: 4.0°C (39°F)
Dewpoint: -20.0°C (-4°F) [RH = 15%]
Pressure (altimeter): 30.30 inches Hg (1026.0 mb)
Winds: from the W (270 degrees) at 7 MPH (6 knots; 3.1 m/s)
Visibility: 6 or more miles (10+ km)
Ceiling: ceiling and visibility are OK
Clouds: unknown
Weather: no significant weather observed at this time

METAR text: ZBAA 171100Z 25003G09MPS 210V300 CAVOK 05/M21 Q1026 NOSIG
Conditions at: ZBAA (BEIJING/PEKING , CN) observed 1100 UTC 17 February 2019
Temperature: 5.0°C (41°F)
Dewpoint: -21.0°C (-6°F) [RH = 13%]
Pressure (altimeter): 30.30 inches Hg (1026.0 mb)
Winds: from the WSW (250 degrees) at 7 MPH (6 knots; 3.1 m/s)
gusting to 20 MPH (17 knots; 8.7 m/s)
Visibility: 6 or more miles (10+ km)
Ceiling: ceiling and visibility are OK
Clouds: unknown
Weather: no significant weather observed at this time

METAR text: ZBAA 171030Z 25003G08MPS 190V310 CAVOK 06/M21 Q1026 NOSIG
Conditions at: ZBAA (BEIJING/PEKING , CN) observed 1030 UTC 17 February 2019
Temperature: 6.0°C (43°F)
Dewpoint: -21.0°C (-6°F) [RH = 12%]
Pressure (altimeter): 30.30 inches Hg (1026.0 mb)
Winds: from the WSW (250 degrees) at 7 MPH (6 knots; 3.1 m/s)
gusting to 18 MPH (16 knots; 8.2 m/s)
Visibility: 6 or more miles (10+ km)
Ceiling: ceiling and visibility are OK
Clouds: unknown
Weather: no significant weather observed at this time

METAR text: ZBAA 171000Z 27003MPS 190V350 CAVOK 05/M21 Q1025 NOSIG
Conditions at: ZBAA (BEIJING/PEKING , CN) observed 1000 UTC 17 February 2019
Temperature: 5.0°C (41°F)
Dewpoint: -21.0°C (-6°F) [RH = 13%]
Pressure (altimeter): 30.27 inches Hg (1025.0 mb)
Winds: from the W (270 degrees) at 7 MPH (6 knots; 3.1 m/s)
Visibility: 6 or more miles (10+ km)
Ceiling: ceiling and visibility are OK
Clouds: unknown
Weather: no significant weather observed at this time

METAR text: ZBAA 170930Z VRB01MPS CAVOK 04/M21 Q1025 NOSIG
Conditions at: ZBAA (BEIJING/PEKING , CN) observed 0930 UTC 17 February 2019
Temperature: 4.0°C (39°F)
Dewpoint: -21.0°C (-6°F) [RH = 14%]
Pressure (altimeter): 30.27 inches Hg (1025.0 mb)
Winds: variable direction winds at 2 MPH (2 knots; 1.0 m/s)
Visibility: 6 or more miles (10+ km)
Ceiling: ceiling and visibility are OK
Clouds: unknown
Weather: no significant weather observed at this time

METAR text: ZBAA 170900Z 01003MPS 340V040 CAVOK 06/M22 Q1025 NOSIG
Conditions at: ZBAA (BEIJING/PEKING , CN) observed 0900 UTC 17 February 2019
Temperature: 6.0°C (43°F)
Dewpoint: -22.0°C (-8°F) [RH = 11%]
Pressure (altimeter): 30.27 inches Hg (1025.0 mb)
Winds: from the N (10 degrees) at 7 MPH (6 knots; 3.1 m/s)
Visibility: 6 or more miles (10+ km)
Ceiling: ceiling and visibility are OK
Clouds: unknown
Weather: no significant weather observed at this time

METAR text: ZBAA 170830Z 31004MPS 280V350 CAVOK 07/M22 Q1026 NOSIG
Conditions at: ZBAA (BEIJING/PEKING , CN) observed 0830 UTC 17 February 2019
Temperature: 7.0°C (45°F)
Dewpoint: -22.0°C (-8°F) [RH = 11%]
Pressure (altimeter): 30.30 inches Hg (1026.0 mb)
Winds: from the NW (310 degrees) at 9 MPH (8 knots; 4.1 m/s)
Visibility: 6 or more miles (10+ km)
Ceiling: ceiling and visibility are OK
Clouds: unknown
Weather: no significant weather observed at this time

METAR text: ZBAA 170800Z 30003G08MPS 250V350 CAVOK 07/M22 Q1026 NOSIG
Conditions at: ZBAA (BEIJING/PEKING , CN) observed 0800 UTC 17 February 2019
Temperature: 7.0°C (45°F)
Dewpoint: -22.0°C (-8°F) [RH = 11%]
Pressure (altimeter): 30.30 inches Hg (1026.0 mb)
Winds: from the WNW (300 degrees) at 7 MPH (6 knots; 3.1 m/s)
gusting to 18 MPH (16 knots; 8.2 m/s)
Visibility: 6 or more miles (10+ km)
Ceiling: ceiling and visibility are OK
Clouds: unknown
Weather: no significant weather observed at this time

METAR text: ZBAA 170730Z 36003MPS 290V030 CAVOK 07/M22 Q1026 NOSIG
Conditions at: ZBAA (BEIJING/PEKING , CN) observed 0730 UTC 17 February 2019
Temperature: 7.0°C (45°F)
Dewpoint: -22.0°C (-8°F) [RH = 11%]
Pressure (altimeter): 30.30 inches Hg (1026.0 mb)
Winds: from the N (360 degrees) at 7 MPH (6 knots; 3.1 m/s)
Visibility: 6 or more miles (10+ km)
Ceiling: ceiling and visibility are OK
Clouds: unknown
Weather: no significant weather observed at this time

METAR text: ZBAA 170700Z 32004G11MPS 270V360 CAVOK 06/M22 Q1026 NOSIG
Conditions at: ZBAA (BEIJING/PEKING , CN) observed 0700 UTC 17 February 2019
Temperature: 6.0°C (43°F)
Dewpoint: -22.0°C (-8°F) [RH = 11%]
Pressure (altimeter): 30.30 inches Hg (1026.0 mb)
Winds: from the NW (320 degrees) at 9 MPH (8 knots; 4.1 m/s)
gusting to 24 MPH (21 knots; 10.8 m/s)
Visibility: 6 or more miles (10+ km)
Ceiling: ceiling and visibility are OK
Clouds: unknown
Weather: no significant weather observed at this time

METAR text: ZBAA 170630Z 31004MPS 250V340 CAVOK 06/M22 Q1027 NOSIG
Conditions at: ZBAA (BEIJING/PEKING , CN) observed 0630 UTC 17 February 2019
Temperature: 6.0°C (43°F)
Dewpoint: -22.0°C (-8°F) [RH = 11%]
Pressure (altimeter): 30.32 inches Hg (1027.0 mb)
Winds: from the NW (310 degrees) at 9 MPH (8 knots; 4.1 m/s)
Visibility: 6 or more miles (10+ km)
Ceiling: ceiling and visibility are OK
Clouds: unknown
Weather: no significant weather observed at this time

METAR text: ZBAA 170600Z 33004MPS 270V010 CAVOK 06/M21 Q1027 NOSIG
Conditions at: ZBAA (BEIJING/PEKING , CN) observed 0600 UTC 17 February 2019
Temperature: 6.0°C (43°F)
Dewpoint: -21.0°C (-6°F) [RH = 12%]
Pressure (altimeter): 30.32 inches Hg (1027.0 mb)
Winds: from the NNW (330 degrees) at 9 MPH (8 knots; 4.1 m/s)
Visibility: 6 or more miles (10+ km)
Ceiling: ceiling and visibility are OK
Clouds: unknown
Weather: no significant weather observed at this time

METAR text: ZBAA 170530Z 32003MPS 220V020 CAVOK 05/M21 Q1028 NOSIG
Conditions at: ZBAA (BEIJING/PEKING , CN) observed 0530 UTC 17 February 2019
Temperature: 5.0°C (41°F)
Dewpoint: -21.0°C (-6°F) [RH = 13%]
Pressure (altimeter): 30.35 inches Hg (1028.0 mb)
Winds: from the NW (320 degrees) at 7 MPH (6 knots; 3.1 m/s)
Visibility: 6 or more miles (10+ km)
Ceiling: ceiling and visibility are OK
Clouds: unknown
Weather: no significant weather observed at this time

METAR text: ZBAA 170500Z 32005MPS 270V350 CAVOK 06/M22 Q1029 NOSIG
Conditions at: ZBAA (BEIJING/PEKING , CN) observed 0500 UTC 17 February 2019
Temperature: 6.0°C (43°F)
Dewpoint: -22.0°C (-8°F) [RH = 11%]
Pressure (altimeter): 30.38 inches Hg (1029.0 mb)
Winds: from the NW (320 degrees) at 12 MPH (10 knots; 5.1 m/s)
Visibility: 6 or more miles (10+ km)
Ceiling: ceiling and visibility are OK
Clouds: unknown
Weather: no significant weather observed at this time

METAR text: ZBAA 170430Z 32005MPS 290V350 CAVOK 05/M21 Q1030 NOSIG
Conditions at: ZBAA (BEIJING/PEKING , CN) observed 0430 UTC 17 February 2019
Temperature: 5.0°C (41°F)
Dewpoint: -21.0°C (-6°F) [RH = 13%]
Pressure (altimeter): 30.41 inches Hg (1030.0 mb)
Winds: from the NW (320 degrees) at 12 MPH (10 knots; 5.1 m/s)
Visibility: 6 or more miles (10+ km)
Ceiling: ceiling and visibility are OK
Clouds: unknown
Weather: no significant weather observed at this time

METAR text: ZBAA 170400Z 35004MPS 300V030 CAVOK 04/M20 Q1031 NOSIG
Conditions at: ZBAA (BEIJING/PEKING , CN) observed 0400 UTC 17 February 2019
Temperature: 4.0°C (39°F)
Dewpoint: -20.0°C (-4°F) [RH = 15%]
Pressure (altimeter): 30.44 inches Hg (1031.0 mb)
Winds: from the N (350 degrees) at 9 MPH (8 knots; 4.1 m/s)
Visibility: 6 or more miles (10+ km)
Ceiling: ceiling and visibility are OK
Clouds: unknown
Weather: no significant weather observed at this time

METAR text: ZBAA 170330Z 35003MPS 300V050 CAVOK 03/M20 Q1031 NOSIG
Conditions at: ZBAA (BEIJING/PEKING , CN) observed 0330 UTC 17 February 2019
Temperature: 3.0°C (37°F)
Dewpoint: -20.0°C (-4°F) [RH = 17%]
Pressure (altimeter): 30.44 inches Hg (1031.0 mb)
Winds: from the N (350 degrees) at 7 MPH (6 knots; 3.1 m/s)
Visibility: 6 or more miles (10+ km)
Ceiling: ceiling and visibility are OK
Clouds: unknown
Weather: no significant weather observed at this time

METAR text: ZBAA 170300Z 34004MPS 300V030 CAVOK 02/M20 Q1031 NOSIG
Conditions at: ZBAA (BEIJING/PEKING , CN) observed 0300 UTC 17 February 2019
Temperature: 2.0°C (36°F)
Dewpoint: -20.0°C (-4°F) [RH = 18%]
Pressure (altimeter): 30.44 inches Hg (1031.0 mb)
Winds: from the NNW (340 degrees) at 9 MPH (8 knots; 4.1 m/s)
Visibility: 6 or more miles (10+ km)
Ceiling: ceiling and visibility are OK
Clouds: unknown
Weather: no significant weather observed at this time

METAR text: ZBAA 170230Z 35004MPS 310V020 CAVOK 01/M20 Q1032 NOSIG
Conditions at: ZBAA (BEIJING/PEKING , CN) observed 0230 UTC 17 February 2019
Temperature: 1.0°C (34°F)
Dewpoint: -20.0°C (-4°F) [RH = 19%]
Pressure (altimeter): 30.47 inches Hg (1032.0 mb)
Winds: from the N (350 degrees) at 9 MPH (8 knots; 4.1 m/s)
Visibility: 6 or more miles (10+ km)
Ceiling: ceiling and visibility are OK
Clouds: unknown
Weather: no significant weather observed at this time

METAR text: ZBAA 170200Z 02004MPS 340V050 CAVOK M01/M19 Q1032 NOSIG
Conditions at: ZBAA (BEIJING/PEKING , CN) observed 0200 UTC 17 February 2019
Temperature: -1.0°C (30°F)
Dewpoint: -19.0°C (-2°F) [RH = 24%]
Pressure (altimeter): 30.47 inches Hg (1032.0 mb)
Winds: from the NNE (20 degrees) at 9 MPH (8 knots; 4.1 m/s)
Visibility: 6 or more miles (10+ km)
Ceiling: ceiling and visibility are OK
Clouds: unknown
Weather: no significant weather observed at this time

METAR text: ZBAA 170130Z 02004MPS CAVOK M01/M19 Q1032 NOSIG
Conditions at: ZBAA (BEIJING/PEKING , CN) observed 0130 UTC 17 February 2019
Temperature: -1.0°C (30°F)
Dewpoint: -19.0°C (-2°F) [RH = 24%]
Pressure (altimeter): 30.47 inches Hg (1032.0 mb)
Winds: from the NNE (20 degrees) at 9 MPH (8 knots; 4.1 m/s)
Visibility: 6 or more miles (10+ km)
Ceiling: ceiling and visibility are OK
Clouds: unknown
Weather: no significant weather observed at this time

METAR text: ZBAA 170100Z 02005MPS CAVOK M02/M18 Q1032 NOSIG
Conditions at: ZBAA (BEIJING/PEKING , CN) observed 0100 UTC 17 February 2019
Temperature: -2.0°C (28°F)
Dewpoint: -18.0°C (-0°F) [RH = 28%]
Pressure (altimeter): 30.47 inches Hg (1032.0 mb)
Winds: from the NNE (20 degrees) at 12 MPH (10 knots; 5.1 m/s)
Visibility: 6 or more miles (10+ km)
Ceiling: ceiling and visibility are OK
Clouds: unknown
Weather: no significant weather observed at this time

METAR text: ZBAA 170030Z 02004MPS CAVOK M03/M19 Q1032 NOSIG
Conditions at: ZBAA (BEIJING/PEKING , CN) observed 0030 UTC 17 February 2019
Temperature: -3.0°C (27°F)
Dewpoint: -19.0°C (-2°F) [RH = 28%]
Pressure (altimeter): 30.47 inches Hg (1032.0 mb)
Winds: from the NNE (20 degrees) at 9 MPH (8 knots; 4.1 m/s)
Visibility: 6 or more miles (10+ km)
Ceiling: ceiling and visibility are OK
Clouds: unknown
Weather: no significant weather observed at this time

METAR text: ZBAA 170000Z 36003MPS CAVOK M05/M18 Q1032 NOSIG
Conditions at: ZBAA (BEIJING/PEKING , CN) observed 0000 UTC 17 February 2019
Temperature: -5.0°C (23°F)
Dewpoint: -18.0°C (-0°F) [RH = 35%]
Pressure (altimeter): 30.47 inches Hg (1032.0 mb)
Winds: from the N (360 degrees) at 7 MPH (6 knots; 3.1 m/s)
Visibility: 6 or more miles (10+ km)
Ceiling: ceiling and visibility are OK
Clouds: unknown
Weather: no significant weather observed at this time

METAR text: ZBAA 162330Z 01003MPS CAVOK M07/M19 Q1032 NOSIG
Conditions at: ZBAA (BEIJING/PEKING , CN) observed 2330 UTC 16 February 2019
Temperature: -7.0°C (19°F)
Dewpoint: -19.0°C (-2°F) [RH = 38%]
Pressure (altimeter): 30.47 inches Hg (1032.0 mb)
Winds: from the N (10 degrees) at 7 MPH (6 knots; 3.1 m/s)
Visibility: 6 or more miles (10+ km)
Ceiling: ceiling and visibility are OK
Clouds: unknown
Weather: no significant weather observed at this time

METAR text: ZBAA 162300Z 02003MPS 350V050 CAVOK M06/M19 Q1031 NOSIG
Conditions at: ZBAA (BEIJING/PEKING , CN) observed 2300 UTC 16 February 2019
Temperature: -6.0°C (21°F)
Dewpoint: -19.0°C (-2°F) [RH = 35%]
Pressure (altimeter): 30.44 inches Hg (1031.0 mb)
Winds: from the NNE (20 degrees) at 7 MPH (6 knots; 3.1 m/s)
Visibility: 6 or more miles (10+ km)
Ceiling: ceiling and visibility are OK
Clouds: unknown
Weather: no significant weather observed at this time

METAR text: ZBAA 162230Z 02003MPS CAVOK M06/M19 Q1031 NOSIG
Conditions at: ZBAA (BEIJING/PEKING , CN) observed 2230 UTC 16 February 2019
Temperature: -6.0°C (21°F)
Dewpoint: -19.0°C (-2°F) [RH = 35%]
Pressure (altimeter): 30.44 inches Hg (1031.0 mb)
Winds: from the NNE (20 degrees) at 7 MPH (6 knots; 3.1 m/s)
Visibility: 6 or more miles (10+ km)
Ceiling: ceiling and visibility are OK
Clouds: unknown
Weather: no significant weather observed at this time

METAR text: ZBAA 162200Z 03004MPS CAVOK M05/M19 Q1032 NOSIG
Conditions at: ZBAA (BEIJING/PEKING , CN) observed 2200 UTC 16 February 2019
Temperature: -5.0°C (23°F)
Dewpoint: -19.0°C (-2°F) [RH = 32%]
Pressure (altimeter): 30.47 inches Hg (1032.0 mb)
Winds: from the NNE (30 degrees) at 9 MPH (8 knots; 4.1 m/s)
Visibility: 6 or more miles (10+ km)
Ceiling: ceiling and visibility are OK
Clouds: unknown
Weather: no significant weather observed at this time

METAR text: ZBAA 162130Z 01003MPS CAVOK M11/M20 Q1032 NOSIG
Conditions at: ZBAA (BEIJING/PEKING , CN) observed 2130 UTC 16 February 2019
Temperature: -11.0°C (12°F)
Dewpoint: -20.0°C (-4°F) [RH = 47%]
Pressure (altimeter): 30.47 inches Hg (1032.0 mb)
Winds: from the N (10 degrees) at 7 MPH (6 knots; 3.1 m/s)
Visibility: 6 or more miles (10+ km)
Ceiling: ceiling and visibility are OK
Clouds: unknown
Weather: no significant weather observed at this time

METAR text: ZBAA 162100Z 01003MPS CAVOK M09/M19 Q1032 NOSIG
Conditions at: ZBAA (BEIJING/PEKING , CN) observed 2100 UTC 16 February 2019
Temperature: -9.0°C (16°F)
Dewpoint: -19.0°C (-2°F) [RH = 44%]
Pressure (altimeter): 30.47 inches Hg (1032.0 mb)
Winds: from the N (10 degrees) at 7 MPH (6 knots; 3.1 m/s)
Visibility: 6 or more miles (10+ km)
Ceiling: ceiling and visibility are OK
Clouds: unknown
Weather: no significant weather observed at this time

METAR text: ZBAA 162030Z 01003MPS CAVOK M10/M20 Q1032 NOSIG
Conditions at: ZBAA (BEIJING/PEKING , CN) observed 2030 UTC 16 February 2019
Temperature: -10.0°C (14°F)
Dewpoint: -20.0°C (-4°F) [RH = 44%]
Pressure (altimeter): 30.47 inches Hg (1032.0 mb)
Winds: from the N (10 degrees) at 7 MPH (6 knots; 3.1 m/s)
Visibility: 6 or more miles (10+ km)
Ceiling: ceiling and visibility are OK
Clouds: unknown
Weather: no significant weather observed at this time

METAR text: ZBAA 162000Z 36003MPS CAVOK M08/M20 Q1032 NOSIG
Conditions at: ZBAA (BEIJING/PEKING , CN) observed 2000 UTC 16 February 2019
Temperature: -8.0°C (18°F)
Dewpoint: -20.0°C (-4°F) [RH = 37%]
Pressure (altimeter): 30.47 inches Hg (1032.0 mb)
Winds: from the N (360 degrees) at 7 MPH (6 knots; 3.1 m/s)
Visibility: 6 or more miles (10+ km)
Ceiling: ceiling and visibility are OK
Clouds: unknown
Weather: no significant weather observed at this time

Forecast for: ZBAA (BEIJING/PEKING , CN)
Text: TAF ZBAA 180330Z 1806/1906 12004MPS 6000 NSC TX04/1806Z TNM04/21Z
Forecast period: 0600 to 1200 UTC 18 February 2019
Forecast type: FROM: standard forecast or significant change
Winds: from the ESE (120 degrees) at 9 MPH (8 knots; 4.1 m/s)
Visibility: 4 miles (6 km)
Ceiling: unknown
Clouds: missing
Weather: no significant weather forecast for this period
Text: BECMG 1812/1813 2700 -SN BR
Forecast period: 1200 UTC 18 February 2019 to 0000 UTC 19 February 2019
Forecast type: BECOMING: Conditions expected to become as follows by 1300 UTC 18 February 2019
Winds: from the ESE (120 degrees) at 9 MPH (8 knots; 4.1 m/s)
Visibility: 1.68 miles (2.70 km)
Ceiling: unknown
Clouds: missing
Weather: -SN BR  (light snow, mist)
Text: BECMG 1900/1901 32005MPS 5000 BR
Forecast period: 0000 to 0600 UTC 19 February 2019
Forecast type: BECOMING: Conditions expected to become as follows by 0100 UTC 19 February 2019
Winds: from the NW (320 degrees) at 12 MPH (10 knots; 5.1 m/s)
Visibility: 3 miles (5 km)
Ceiling: unknown
Clouds: missing
Weather: BR  (mist)